Time;durP1;ratioP1;P1;durP2;ratioP2;P2;SDS_P1;SDS_P2;PMS_P1;PMS_P2;Temp;Humidity;BMP_temperature;BMP_pressure;BME280_temperature;BME280_humidity;BME280_pressure;Samples;Min_cycle;Max_cycle;Signal;HPM_P1;HPM_P2
2023/05/22 00:01:11;;;;;;;28.15;18.58;;;13.20;99.90;;;;;;5098949;28;20123;-78
2023/05/22 00:03:39;;;;;;;20.88;16.35;;;13.20;99.90;;;;;;5098673;28;20430;-74
2023/05/22 00:06:08;;;;;;;18.95;14.80;;;13.20;99.90;;;;;;5097686;28;20067;-76
2023/05/22 00:08:36;;;;;;;21.52;16.52;;;13.10;99.90;;;;;;5099278;28;20573;-75
2023/05/22 00:11:04;;;;;;;18.98;15.50;;;13.10;99.90;;;;;;5099697;28;20048;-74
2023/05/22 00:13:31;;;;;;;19.35;14.25;;;13.10;99.90;;;;;;5099763;28;20036;-75
2023/05/22 00:15:59;;;;;;;18.38;14.60;;;13.10;99.90;;;;;;5100049;28;20605;-77
2023/05/22 00:18:26;;;;;;;17.42;11.60;;;13.10;99.90;;;;;;5102092;28;20043;-76
2023/05/22 00:20:54;;;;;;;16.83;11.25;;;13.10;99.90;;;;;;5102478;28;20048;-78
2023/05/22 00:23:23;;;;;;;13.95;11.43;;;13.10;99.90;;;;;;5101100;28;20055;-76
2023/05/22 00:25:50;;;;;;;15.18;12.00;;;13.00;99.90;;;;;;5102720;28;20048;-78
2023/05/22 00:28:18;;;;;;;14.07;10.60;;;12.90;99.90;;;;;;5102536;28;20071;-75
2023/05/22 00:30:46;;;;;;;13.10;10.25;;;12.90;99.90;;;;;;5084294;28;20065;-77
2023/05/22 00:33:13;;;;;;;18.15;12.18;;;12.70;99.90;;;;;;5086783;28;20054;-78
2023/05/22 00:35:41;;;;;;;15.35;11.65;;;12.70;99.90;;;;;;5103620;28;20035;-76
2023/05/22 00:38:26;;;;;;;15.02;11.23;;;12.70;99.90;;;;;;5102558;28;20404;-76
2023/05/22 00:40:56;;;;;;;20.30;13.13;;;12.70;99.90;;;;;;5085630;28;20048;-75
2023/05/22 00:43:23;;;;;;;17.00;11.98;;;12.70;99.90;;;;;;5102638;28;20419;-76
2023/05/22 00:45:51;;;;;;;16.48;13.02;;;12.70;99.90;;;;;;5103643;28;20126;-76
2023/05/22 00:48:18;;;;;;;22.70;13.65;;;12.70;99.90;;;;;;5084228;28;20133;-76
2023/05/22 00:50:46;;;;;;;22.48;14.25;;;12.70;99.90;;;;;;5085273;28;20403;-75
2023/05/22 00:53:15;;;;;;;16.77;12.82;;;12.50;99.90;;;;;;5101368;28;20040;-76
2023/05/22 00:55:43;;;;;;;18.67;12.98;;;12.50;99.90;;;;;;5101748;28;20070;-77
2023/05/22 00:58:15;;;;;;;18.38;12.25;;;12.50;99.90;;;;;;5083640;28;20056;-75
2023/05/22 01:00:44;;;;;;;21.05;13.52;;;12.50;99.90;;;;;;5082363;28;20464;-74
2023/05/22 01:03:11;;;;;;;17.38;12.90;;;12.40;99.90;;;;;;5086671;28;20492;-74
2023/05/22 01:05:40;;;;;;;22.17;13.57;;;12.40;99.90;;;;;;5086004;28;20118;-76
2023/05/22 01:08:09;;;;;;;20.55;13.73;;;12.40;99.90;;;;;;5110269;28;20066;-77
2023/05/22 01:10:38;;;;;;;17.67;12.63;;;12.40;99.90;;;;;;5094240;28;20048;-77
2023/05/22 01:13:19;;;;;;;19.63;13.65;;;12.40;99.90;;;;;;5090458;28;20050;-75
2023/05/22 01:15:55;;;;;;;18.83;14.20;;;12.30;99.90;;;;;;5100947;28;20145;-76
2023/05/22 01:18:31;;;;;;;16.63;13.18;;;12.20;99.90;;;;;;5085149;28;20047;-76
2023/05/22 01:21:09;;;;;;;23.05;13.55;;;12.20;99.90;;;;;;5085540;28;20139;-77
2023/05/22 01:24:10;;;;;;;15.00;12.10;;;12.20;99.90;;;;;;5100915;28;20045;-77
2023/05/22 01:27:08;;;;;;;15.90;12.70;;;12.10;99.90;;;;;;5101275;28;20036;-75
2023/05/22 01:29:45;;;;;;;22.98;13.85;;;12.10;99.90;;;;;;5092461;28;20487;-75
2023/05/22 01:32:20;;;;;;;21.15;13.30;;;12.10;99.90;;;;;;5082807;28;20048;-78
2023/05/22 01:34:53;;;;;;;19.67;13.38;;;12.10;99.90;;;;;;5102139;28;20089;-76
2023/05/22 01:37:23;;;;;;;17.75;12.48;;;12.10;99.90;;;;;;5101653;28;20037;-76
2023/05/22 01:39:54;;;;;;;16.92;12.30;;;12.10;99.90;;;;;;5083233;28;20039;-77
2023/05/22 01:42:21;;;;;;;14.95;11.77;;;12.10;99.90;;;;;;5101346;28;20396;-77
2023/05/22 01:44:49;;;;;;;21.80;14.55;;;12.10;99.90;;;;;;5083615;28;20223;-77
2023/05/22 01:47:18;;;;;;;26.08;16.23;;;12.10;99.90;;;;;;5081838;28;20139;-76
2023/05/22 01:49:47;;;;;;;21.90;15.23;;;12.00;99.90;;;;;;5098906;28;20067;-77
2023/05/22 01:52:22;;;;;;;27.55;15.57;;;12.00;99.90;;;;;;5083066;28;20050;-75
2023/05/22 01:54:54;;;;;;;17.25;12.80;;;12.00;99.90;;;;;;5099651;28;20058;-76
2023/05/22 01:57:27;;;;;;;15.30;12.02;;;12.00;99.90;;;;;;5082105;28;20411;-76
2023/05/22 02:00:08;;;;;;;16.00;12.70;;;12.00;99.90;;;;;;5081645;28;20044;-77
2023/05/22 02:02:48;;;;;;;16.85;12.52;;;12.00;99.90;;;;;;5101221;28;20044;-76
2023/05/22 02:05:18;;;;;;;16.30;12.15;;;12.00;99.90;;;;;;5082616;28;20044;-74
2023/05/22 02:07:47;;;;;;;17.13;12.73;;;12.00;99.90;;;;;;5105051;28;20036;-77
2023/05/22 02:10:18;;;;;;;15.57;11.85;;;11.90;99.90;;;;;;5084207;28;20036;-76
2023/05/22 02:12:46;;;;;;;16.08;12.80;;;11.90;99.90;;;;;;5091826;28;20093;-76
2023/05/22 02:15:15;;;;;;;18.63;13.05;;;11.90;99.90;;;;;;5098305;28;20051;-77
2023/05/22 02:17:45;;;;;;;18.50;14.52;;;11.80;99.90;;;;;;5101619;28;20120;-76
2023/05/22 02:20:14;;;;;;;24.08;17.55;;;11.80;99.90;;;;;;5082076;28;20043;-77
2023/05/22 02:22:44;;;;;;;22.77;17.65;;;11.80;99.90;;;;;;5082730;28;20081;-78
2023/05/22 02:25:14;;;;;;;26.20;20.13;;;11.80;99.90;;;;;;5099138;28;20131;-78
2023/05/22 02:27:42;;;;;;;27.17;20.38;;;11.70;99.90;;;;;;5080818;28;20491;-77
2023/05/22 02:30:11;;;;;;;30.85;20.38;;;11.60;99.90;;;;;;5098547;28;20127;-75
2023/05/22 02:32:40;;;;;;;31.60;20.05;;;11.70;99.90;;;;;;5081998;28;20036;-75
2023/05/22 02:35:10;;;;;;;26.83;18.17;;;11.60;99.90;;;;;;5082465;28;20048;-76
2023/05/22 02:37:37;;;;;;;25.63;19.08;;;11.60;99.90;;;;;;5071381;28;20666;-78
2023/05/22 02:40:06;;;;;;;25.17;17.50;;;11.60;99.90;;;;;;5090151;28;20048;-77
2023/05/22 02:42:34;;;;;;;19.80;14.50;;;11.50;99.90;;;;;;5086936;28;20131;-77
2023/05/22 02:45:02;;;;;;;21.05;15.00;;;11.60;99.90;;;;;;5090487;28;20368;-75
2023/05/22 02:47:29;;;;;;;19.15;13.20;;;11.60;99.90;;;;;;5106414;28;20047;-77
2023/05/22 02:49:58;;;;;;;14.85;12.00;;;11.50;99.90;;;;;;5071326;28;20097;-77
2023/05/22 02:52:27;;;;;;;18.33;12.00;;;11.50;99.90;;;;;;5097130;28;20093;-77
2023/05/22 02:54:54;;;;;;;19.05;12.90;;;11.40;99.90;;;;;;5105954;28;20543;-76
2023/05/22 02:57:23;;;;;;;19.00;12.45;;;11.40;99.90;;;;;;5080957;28;20499;-75
2023/05/22 02:59:51;;;;;;;23.98;14.18;;;11.30;99.90;;;;;;5081475;28;20123;-76
2023/05/22 03:02:18;;;;;;;16.83;13.05;;;11.30;99.90;;;;;;5106627;28;20388;-76
2023/05/22 03:04:46;;;;;;;17.50;13.27;;;11.30;99.90;;;;;;5082167;28;20096;-74
2023/05/22 03:07:14;;;;;;;15.63;12.82;;;11.20;99.90;;;;;;5080724;28;20052;-74
2023/05/22 03:09:43;;;;;;;14.85;12.50;;;11.20;99.90;;;;;;5098785;28;20036;-74
2023/05/22 03:12:10;;;;;;;19.23;12.43;;;11.20;99.90;;;;;;5099020;28;20119;-75
2023/05/22 03:14:38;;;;;;;15.35;12.38;;;11.20;99.90;;;;;;5083600;28;20043;-77
2023/05/22 03:17:06;;;;;;;14.60;11.85;;;11.20;99.90;;;;;;5084859;28;20101;-75
2023/05/22 03:19:33;;;;;;;16.48;11.98;;;11.10;99.90;;;;;;5093530;28;20107;-73
2023/05/22 03:22:00;;;;;;;18.80;11.10;;;11.20;99.90;;;;;;5080110;22;20137;-76
2023/05/22 03:24:31;;;;;;;16.98;11.20;;;11.20;99.90;;;;;;5055385;28;20033;-76
2023/05/22 03:27:01;;;;;;;17.73;12.05;;;11.30;99.90;;;;;;5055143;28;20044;-76
2023/05/22 03:29:37;;;;;;;13.70;10.80;;;11.40;99.90;;;;;;5052557;28;20060;-77
2023/05/22 03:32:05;;;;;;;15.27;11.38;;;11.50;99.90;;;;;;5048335;28;20080;-75
2023/05/22 03:34:32;;;;;;;14.82;10.98;;;11.60;99.90;;;;;;5038745;28;20048;-76
2023/05/22 03:37:00;;;;;;;13.63;10.57;;;11.60;99.90;;;;;;5045946;28;20460;-77
2023/05/22 03:39:28;;;;;;;16.48;11.25;;;11.70;99.90;;;;;;5030097;28;20036;-75
2023/05/22 03:42:02;;;;;;;16.70;11.43;;;11.70;99.90;;;;;;5030044;28;20045;-77
2023/05/22 03:44:30;;;;;;;14.57;10.82;;;11.80;99.90;;;;;;5027203;28;20044;-76
2023/05/22 03:46:57;;;;;;;15.10;11.85;;;11.70;99.90;;;;;;5029002;28;20088;-76
2023/05/22 03:49:24;;;;;;;15.07;11.13;;;11.80;99.90;;;;;;5044092;28;20030;-76
2023/05/22 03:51:52;;;;;;;18.20;10.63;;;12.10;99.90;;;;;;5048762;28;20033;-77
2023/05/22 03:54:19;;;;;;;11.85;8.73;;;12.60;99.90;;;;;;5033657;28;20097;-76
2023/05/22 03:56:47;;;;;;;10.35;8.38;;;13.20;99.90;;;;;;5060008;28;20045;-76
2023/05/22 03:59:16;;;;;;;14.75;8.60;;;13.90;99.90;;;;;;5037228;28;20047;-75
2023/05/22 04:01:45;;;;;;;15.25;8.23;;;14.60;99.90;;;;;;5048746;28;20470;-74
2023/05/22 04:04:12;;;;;;;12.40;8.57;;;15.10;99.90;;;;;;5048029;28;20041;-76
2023/05/22 04:06:41;;;;;;;13.32;9.02;;;15.70;99.90;;;;;;5047545;28;20041;-75
2023/05/22 04:09:11;;;;;;;12.27;7.90;;;16.20;99.90;;;;;;5027021;28;20106;-75
2023/05/22 04:11:40;;;;;;;10.10;7.47;;;16.70;99.90;;;;;;5047630;28;20048;-75
2023/05/22 04:14:08;;;;;;;11.70;7.47;;;17.30;99.90;;;;;;5046326;28;20049;-74
2023/05/22 04:16:37;;;;;;;11.60;8.18;;;17.70;99.90;;;;;;5037697;28;20421;-74
2023/05/22 04:19:08;;;;;;;11.20;8.48;;;18.40;99.90;;;;;;5029953;28;20041;-75
2023/05/22 04:21:37;;;;;;;14.50;8.48;;;19.20;99.90;;;;;;5048546;28;20131;-74
2023/05/22 04:24:05;;;;;;;14.60;8.20;;;19.80;99.90;;;;;;5047506;28;20119;-76
2023/05/22 04:26:33;;;;;;;13.00;6.90;;;20.50;99.90;;;;;;5052971;28;20072;-75
2023/05/22 04:29:01;;;;;;;11.60;7.65;;;20.60;99.90;;;;;;5052432;28;20048;-75
2023/05/22 04:31:28;;;;;;;11.77;6.53;;;20.40;99.30;;;;;;5053088;28;20034;-76
2023/05/22 04:33:58;;;;;;;11.45;6.75;;;20.40;99.80;;;;;;5054173;28;20053;-75
2023/05/22 04:36:26;;;;;;;11.85;7.18;;;20.70;96.90;;;;;;5047868;28;20075;-76
2023/05/22 04:38:54;;;;;;;8.98;7.13;;;20.70;96.30;;;;;;5053263;28;20140;-74
2023/05/22 04:41:25;;;;;;;11.68;8.00;;;20.60;95.60;;;;;;5052754;28;20057;-75
2023/05/22 04:43:53;;;;;;;11.32;6.82;;;20.70;96.00;;;;;;5054574;28;20174;-75
2023/05/22 04:46:21;;;;;;;10.73;7.55;;;21.00;95.20;;;;;;5054530;28;20056;-75
2023/05/22 04:48:49;;;;;;;12.55;7.85;;;21.40;93.90;;;;;;5056866;28;20052;-76
2023/05/22 04:51:18;;;;;;;11.40;7.72;;;22.00;92.40;;;;;;5060029;28;20072;-77
2023/05/22 04:53:48;;;;;;;12.05;7.45;;;22.20;90.30;;;;;;5032638;28;20094;-75
2023/05/22 04:56:15;;;;;;;15.63;10.02;;;21.70;90.00;;;;;;5052728;28;20469;-76
2023/05/22 04:58:43;;;;;;;13.20;8.68;;;21.00;91.20;;;;;;5031242;28;20068;-76
2023/05/22 05:01:10;;;;;;;19.27;9.25;;;20.30;93.60;;;;;;5053854;28;20048;-77
2023/05/22 05:03:38;;;;;;;15.50;9.65;;;19.80;96.80;;;;;;5042355;28;20047;-74
2023/05/22 05:06:07;;;;;;;11.23;7.45;;;20.70;99.90;;;;;;5034261;28;20063;-76
2023/05/22 05:08:36;;;;;;;11.95;8.48;;;21.60;95.60;;;;;;5051243;28;20037;-75
2023/05/22 05:11:04;;;;;;;14.43;9.95;;;22.70;91.50;;;;;;5066376;28;20412;-75
2023/05/22 05:13:31;;;;;;;12.63;7.70;;;23.40;88.60;;;;;;5035861;28;20037;-76
2023/05/22 05:16:00;;;;;;;15.75;9.57;;;24.30;82.40;;;;;;5033592;28;20041;-75
2023/05/22 05:18:27;;;;;;;15.73;8.85;;;25.10;77.90;;;;;;5033370;28;20145;-75
2023/05/22 05:20:55;;;;;;;17.02;9.88;;;25.60;72.50;;;;;;5034501;28;20048;-75
2023/05/22 05:23:22;;;;;;;14.10;8.18;;;26.10;71.70;;;;;;5055905;28;20505;-75
2023/05/22 05:25:51;;;;;;;10.82;7.93;;;26.50;67.90;;;;;;5035012;28;20094;-75
2023/05/22 05:28:19;;;;;;;12.77;8.15;;;26.80;66.10;;;;;;5051310;28;20041;-75
2023/05/22 05:30:46;;;;;;;10.20;7.90;;;26.90;62.80;;;;;;5033361;28;20128;-74
2023/05/22 05:33:49;;;;;;;11.90;8.07;;;27.10;61.50;;;;;;5041057;28;20037;-76
2023/05/22 05:36:42;;;;;;;10.38;8.15;;;27.30;60.40;;;;;;5051619;28;20037;-75
2023/05/22 05:39:10;;;;;;;11.48;8.00;;;26.90;59.20;;;;;;5021817;28;20124;-74
2023/05/22 05:41:40;;;;;;;8.88;7.20;;;26.50;59.30;;;;;;5013679;28;20049;-76
2023/05/22 05:44:10;;;;;;;8.65;7.18;;;25.80;60.20;;;;;;5033552;28;20091;-76
2023/05/22 05:46:38;;;;;;;11.43;7.85;;;25.60;61.10;;;;;;5034169;28;20099;-76
2023/05/22 05:49:08;;;;;;;10.35;7.70;;;25.40;61.40;;;;;;5034228;28;20068;-75
2023/05/22 05:51:36;;;;;;;12.10;8.02;;;24.60;63.20;;;;;;5032699;28;20612;-75
2023/05/22 05:54:05;;;;;;;12.02;7.53;;;24.20;65.40;;;;;;5049093;28;20040;-76
2023/05/22 05:56:33;;;;;;;13.77;7.80;;;23.90;68.00;;;;;;5048934;28;20041;-75
2023/05/22 05:59:02;;;;;;;13.25;10.20;;;24.10;67.00;;;;;;5034067;28;20508;-76
2023/05/22 06:01:53;;;;;;;11.35;7.97;;;24.10;66.80;;;;;;5009302;28;20496;-75
2023/05/22 06:04:26;;;;;;;14.57;8.57;;;23.80;67.20;;;;;;5037163;28;20519;-75
2023/05/22 06:06:54;;;;;;;13.75;9.23;;;23.30;68.20;;;;;;5025712;28;20040;-75
2023/05/22 06:09:27;;;;;;;12.27;8.65;;;23.00;69.20;;;;;;5046737;28;20404;-75
2023/05/22 06:12:11;;;;;;;10.82;8.10;;;22.90;70.60;;;;;;5051759;28;20045;-74
2023/05/22 06:14:41;;;;;;;13.15;8.73;;;22.40;72.00;;;;;;5039074;28;20033;-76
2023/05/22 06:17:08;;;;;;;14.55;8.98;;;21.90;74.40;;;;;;5056499;28;20120;-79
2023/05/22 06:19:39;;;;;;;13.35;9.07;;;21.70;76.40;;;;;;5033431;28;20060;-75
2023/05/22 06:22:06;;;;;;;11.20;8.45;;;21.70;78.10;;;;;;5043158;28;20041;-74
2023/05/22 06:24:35;;;;;;;14.00;8.75;;;21.90;78.90;;;;;;5029729;28;20523;-75
2023/05/22 06:27:09;;;;;;;12.32;8.18;;;22.30;78.50;;;;;;5028371;28;20584;-75
2023/05/22 06:29:37;;;;;;;14.48;9.65;;;22.40;77.70;;;;;;5042140;28;20049;-74
2023/05/22 06:32:07;;;;;;;11.73;8.43;;;22.60;77.30;;;;;;5045045;28;20091;-74
2023/05/22 06:34:36;;;;;;;14.23;10.75;;;22.80;76.80;;;;;;5022081;28;20527;-75
2023/05/22 06:37:04;;;;;;;10.73;8.15;;;22.80;76.40;;;;;;5008864;28;20049;-75
2023/05/22 06:39:38;;;;;;;14.85;8.27;;;22.80;76.30;;;;;;5020527;28;20072;-74
2023/05/22 06:42:10;;;;;;;13.20;9.20;;;22.90;76.80;;;;;;5042391;28;20497;-75
2023/05/22 06:44:58;;;;;;;17.42;10.75;;;23.20;76.20;;;;;;5011006;28;20141;-75
2023/05/22 06:47:35;;;;;;;11.90;9.30;;;23.40;76.90;;;;;;5025419;28;20046;-75
2023/05/22 06:50:03;;;;;;;19.85;13.77;;;23.40;76.60;;;;;;5007945;28;20048;-73
2023/05/22 06:52:32;;;;;;;18.65;11.30;;;23.60;76.50;;;;;;5024277;28;20634;-77
2023/05/22 06:55:04;;;;;;;17.35;10.25;;;23.70;76.30;;;;;;5036274;28;20136;-76
2023/05/22 06:57:34;;;;;;;16.42;11.48;;;23.60;77.00;;;;;;5034336;28;20565;-75
2023/05/22 07:00:06;;;;;;;14.43;11.50;;;23.70;77.30;;;;;;5031945;28;20420;-75
2023/05/22 07:02:53;;;;;;;14.57;10.75;;;23.90;77.60;;;;;;5043992;28;20060;-76
2023/05/22 07:05:41;;;;;;;19.70;12.48;;;23.90;76.50;;;;;;5043686;28;20132;-75
2023/05/22 07:08:09;;;;;;;18.20;12.40;;;23.90;77.00;;;;;;5028222;28;20045;-78
2023/05/22 07:10:37;;;;;;;17.35;11.38;;;23.90;77.50;;;;;;5056591;28;20135;-74
2023/05/22 07:13:05;;;;;;;15.63;10.68;;;24.10;77.30;;;;;;5052043;28;20049;-76
2023/05/22 07:15:33;;;;;;;16.45;9.95;;;24.10;76.90;;;;;;5059326;28;20060;-75
2023/05/22 07:18:05;;;;;;;10.05;6.80;;;24.20;77.30;;;;;;5025805;28;20577;-75
2023/05/22 07:20:33;;;;;;;10.30;6.32;;;24.30;73.80;;;;;;5034607;28;20053;-75
2023/05/22 07:23:10;;;;;;;8.80;6.00;;;24.30;72.10;;;;;;5019512;28;20049;-76
2023/05/22 07:25:39;;;;;;;10.98;5.72;;;24.10;71.60;;;;;;5026448;28;20092;-75
2023/05/22 07:28:09;;;;;;;13.95;8.80;;;23.80;72.10;;;;;;5035762;28;20132;-75
2023/05/22 07:30:46;;;;;;;13.02;8.10;;;23.80;72.80;;;;;;5031412;28;20045;-76
2023/05/22 07:33:15;;;;;;;12.35;7.60;;;23.90;72.40;;;;;;5046763;28;20497;-75
2023/05/22 07:35:44;;;;;;;7.80;5.30;;;24.00;72.50;;;;;;5046642;28;20053;-75
2023/05/22 07:38:12;;;;;;;11.38;6.10;;;24.00;69.60;;;;;;5028094;28;20501;-75
2023/05/22 07:40:44;;;;;;;6.85;5.65;;;24.00;69.60;;;;;;5027076;28;20095;-74
2023/05/22 07:43:14;;;;;;;5.85;4.57;;;23.90;68.20;;;;;;5036373;28;20095;-74
2023/05/22 07:45:42;;;;;;;12.95;5.88;;;24.10;66.20;;;;;;5046778;28;20083;-75
2023/05/22 07:48:12;;;;;;;10.82;6.68;;;24.10;66.90;;;;;;5045972;28;20045;-75
2023/05/22 07:50:44;;;;;;;8.98;5.53;;;24.10;67.30;;;;;;5045738;28;20037;-75
2023/05/22 07:53:12;;;;;;;10.18;6.05;;;24.00;67.00;;;;;;5030004;28;20053;-76
2023/05/22 07:55:42;;;;;;;11.57;5.95;;;24.00;66.80;;;;;;5030841;28;20565;-77
2023/05/22 07:58:10;;;;;;;12.77;6.72;;;24.00;67.50;;;;;;5030163;28;20067;-76
2023/05/22 08:00:41;;;;;;;11.73;6.90;;;24.00;67.40;;;;;;5029784;28;20045;-75
2023/05/22 08:03:09;;;;;;;8.32;5.47;;;24.10;66.90;;;;;;5046344;28;20045;-75
2023/05/22 08:05:36;;;;;;;7.90;4.68;;;24.30;66.40;;;;;;5046550;28;20614;-76
2023/05/22 08:08:05;;;;;;;9.43;5.53;;;24.50;65.60;;;;;;5048104;28;20053;-75
2023/05/22 08:10:32;;;;;;;10.80;5.72;;;24.50;64.70;;;;;;5030469;28;20049;-76
2023/05/22 08:13:04;;;;;;;8.77;4.90;;;24.50;65.60;;;;;;5033205;28;20040;-76
2023/05/22 08:15:33;;;;;;;9.25;6.72;;;24.30;64.10;;;;;;5030188;28;20127;-76
2023/05/22 08:18:00;;;;;;;8.05;5.95;;;24.10;63.90;;;;;;5030007;28;20071;-76
2023/05/22 08:20:28;;;;;;;9.55;5.97;;;24.40;63.20;;;;;;5046294;28;20051;-75
2023/05/22 08:22:55;;;;;;;8.93;6.20;;;24.40;62.40;;;;;;5047614;28;20053;-75
2023/05/22 08:25:24;;;;;;;6.78;5.60;;;24.50;60.90;;;;;;5048902;28;20066;-76
2023/05/22 08:27:52;;;;;;;10.90;4.93;;;24.60;60.90;;;;;;5029806;28;20124;-76
2023/05/22 08:30:19;;;;;;;9.85;5.78;;;24.60;59.80;;;;;;5046991;28;20442;-75
2023/05/22 08:32:46;;;;;;;9.15;5.10;;;24.60;60.10;;;;;;5047940;28;20041;-76
2023/05/22 08:35:14;;;;;;;7.07;5.30;;;24.80;59.30;;;;;;5032737;28;20041;-77
2023/05/22 08:37:41;;;;;;;11.20;5.47;;;24.60;59.20;;;;;;5052541;28;20049;-76
2023/05/22 08:40:12;;;;;;;9.15;6.28;;;24.80;59.20;;;;;;5057270;28;20049;-76
2023/05/22 08:42:41;;;;;;;13.98;5.72;;;24.70;59.10;;;;;;5060352;28;20044;-75
2023/05/22 08:45:09;;;;;;;11.45;6.63;;;24.60;58.50;;;;;;5061104;28;20127;-75
2023/05/22 08:47:37;;;;;;;10.45;7.18;;;24.70;59.20;;;;;;5054950;28;20045;-76
2023/05/22 08:50:06;;;;;;;7.18;6.00;;;25.00;59.20;;;;;;5054482;28;20143;-76
2023/05/22 08:52:50;;;;;;;11.07;5.78;;;25.00;58.10;;;;;;5053985;28;20044;-75
2023/05/22 08:55:19;;;;;;;7.95;6.53;;;25.00;58.40;;;;;;5056050;28;20043;-76
2023/05/22 08:57:49;;;;;;;11.75;6.75;;;25.20;58.00;;;;;;5056021;28;20068;-76
2023/05/22 09:00:18;;;;;;;7.63;5.38;;;25.30;58.00;;;;;;5054043;28;20383;-75
2023/05/22 09:02:47;;;;;;;7.35;5.28;;;25.30;57.80;;;;;;5052402;28;20048;-76
2023/05/22 09:05:16;;;;;;;7.07;5.20;;;25.00;55.60;;;;;;5051579;28;20064;-74
2023/05/22 09:07:44;;;;;;;10.43;5.45;;;25.10;54.90;;;;;;5054407;28;20041;-76
2023/05/22 09:10:12;;;;;;;7.30;4.65;;;25.10;55.10;;;;;;5038650;28;20235;-74
2023/05/22 09:13:02;;;;;;;9.18;4.65;;;25.30;55.10;;;;;;5041946;28;20087;-76
2023/05/22 09:15:31;;;;;;;10.57;5.45;;;25.30;54.70;;;;;;5053946;28;20082;-74
2023/05/22 09:17:59;;;;;;;9.65;7.25;;;25.20;55.60;;;;;;5065219;28;20063;-75
2023/05/22 09:20:26;;;;;;;7.40;6.03;;;25.30;56.00;;;;;;5063060;28;20041;-76
2023/05/22 09:22:55;;;;;;;8.32;5.75;;;25.40;56.00;;;;;;5052689;28;20057;-76
2023/05/22 09:25:23;;;;;;;6.80;4.50;;;25.50;54.10;;;;;;5050784;28;20132;-75
2023/05/22 09:27:50;;;;;;;8.27;5.22;;;25.70;52.50;;;;;;5051980;28;20045;-75
2023/05/22 09:30:20;;;;;;;8.35;4.60;;;25.70;52.50;;;;;;5050576;28;20041;-76
2023/05/22 09:32:49;;;;;;;11.05;5.53;;;25.60;52.20;;;;;;5049488;28;20069;-74
2023/05/22 09:35:18;;;;;;;8.15;5.50;;;25.70;53.60;;;;;;5050364;28;20043;-75
2023/05/22 09:37:45;;;;;;;12.40;5.60;;;25.80;53.10;;;;;;5051112;28;20047;-75
2023/05/22 09:40:13;;;;;;;9.30;4.72;;;25.80;52.40;;;;;;5050602;28;20041;-75
2023/05/22 09:42:44;;;;;;;10.35;5.88;;;25.80;51.50;;;;;;5050664;28;20047;-75
2023/05/22 09:45:12;;;;;;;7.03;5.13;;;25.90;49.30;;;;;;5051390;28;20045;-75
2023/05/22 09:47:41;;;;;;;9.05;4.50;;;26.00;47.80;;;;;;5056485;28;20068;-75
2023/05/22 09:50:09;;;;;;;7.85;5.70;;;26.10;47.70;;;;;;5053013;28;20059;-76
2023/05/22 09:52:38;;;;;;;7.95;5.10;;;26.10;47.30;;;;;;5051362;28;20109;-74
2023/05/22 09:55:07;;;;;;;7.65;4.88;;;26.10;46.40;;;;;;5050418;28;20428;-74
2023/05/22 09:57:42;;;;;;;10.27;5.20;;;26.30;46.10;;;;;;5051419;28;20102;-76
2023/05/22 10:00:17;;;;;;;6.55;5.30;;;26.60;46.60;;;;;;5049640;28;20045;-76
2023/05/22 10:02:49;;;;;;;8.00;5.35;;;26.80;47.50;;;;;;5049973;28;20078;-75
2023/05/22 10:05:20;;;;;;;10.30;6.40;;;27.10;46.70;;;;;;5049471;28;20471;-75
2023/05/22 10:07:50;;;;;;;6.32;4.90;;;27.20;45.50;;;;;;5050426;28;20561;-75
2023/05/22 10:10:21;;;;;;;10.88;5.15;;;27.10;45.60;;;;;;5049254;28;20552;-75
2023/05/22 10:12:52;;;;;;;7.63;4.95;;;26.70;44.80;;;;;;5050083;28;20497;-75
2023/05/22 10:15:20;;;;;;;8.25;4.35;;;26.70;45.10;;;;;;5050128;28;20423;-76
2023/05/22 10:17:50;;;;;;;7.85;5.38;;;26.80;45.30;;;;;;5050039;28;20508;-74
2023/05/22 10:20:17;;;;;;;8.98;7.60;;;26.80;46.50;;;;;;5031622;28;20052;-75
2023/05/22 10:22:47;;;;;;;7.93;5.00;;;26.80;45.80;;;;;;5049070;28;20053;-75
2023/05/22 10:25:17;;;;;;;7.43;4.50;;;26.90;46.30;;;;;;5049639;28;20485;-74
2023/05/22 10:27:45;;;;;;;10.23;5.93;;;27.00;47.10;;;;;;5049268;28;20045;-75
2023/05/22 10:30:28;;;;;;;8.40;4.80;;;27.20;49.20;;;;;;5047833;28;20534;-75
2023/05/22 10:33:21;;;;;;;9.15;5.78;;;27.10;50.40;;;;;;4998151;28;20083;-76
2023/05/22 10:35:52;;;;;;;7.53;4.68;;;26.80;49.80;;;;;;5049902;28;20041;-75
2023/05/22 10:38:47;;;;;;;7.47;5.38;;;26.60;48.90;;;;;;5048674;28;20041;-75
2023/05/22 10:41:15;;;;;;;10.65;5.10;;;26.50;50.70;;;;;;5049183;28;20497;-74
2023/05/22 10:43:43;;;;;;;9.45;5.80;;;26.40;52.10;;;;;;5050180;28;20041;-76
2023/05/22 10:46:13;;;;;;;10.10;6.57;;;26.40;52.40;;;;;;5049700;28;20522;-75
2023/05/22 10:48:45;;;;;;;10.10;7.15;;;26.60;52.40;;;;;;5049037;28;20057;-75
2023/05/22 10:51:14;;;;;;;10.48;5.47;;;26.80;50.10;;;;;;5049032;28;20037;-75
2023/05/22 10:53:44;;;;;;;11.75;6.00;;;27.00;48.30;;;;;;5049691;28;20041;-75
2023/05/22 10:56:12;;;;;;;9.13;5.15;;;26.90;48.10;;;;;;5049982;28;20045;-78
2023/05/22 10:58:44;;;;;;;7.20;5.10;;;27.00;48.50;;;;;;5048159;28;20416;-74
2023/05/22 11:01:13;;;;;;;6.13;4.40;;;26.90;47.30;;;;;;5049204;28;20049;-76
2023/05/22 11:04:00;;;;;;;9.65;5.20;;;26.90;46.20;;;;;;5049750;28;20041;-75
2023/05/22 11:06:32;;;;;;;7.65;5.25;;;27.00;47.30;;;;;;5030593;28;20141;-74
2023/05/22 11:09:00;;;;;;;7.60;4.57;;;27.00;46.90;;;;;;5049817;28;20076;-77
2023/05/22 11:11:28;;;;;;;10.93;7.47;;;27.00;45.70;;;;;;5049833;28;20033;-75
2023/05/22 11:14:03;;;;;;;6.88;4.65;;;27.10;46.90;;;;;;5049310;28;20072;-75
2023/05/22 11:16:33;;;;;;;8.73;6.13;;;27.10;45.50;;;;;;5031279;28;20567;-75
2023/05/22 11:19:07;;;;;;;7.28;4.15;;;27.20;44.70;;;;;;5048165;28;20048;-75
2023/05/22 11:21:43;;;;;;;10.27;5.03;;;27.10;41.60;;;;;;5047691;28;20074;-74
2023/05/22 11:24:12;;;;;;;6.80;4.30;;;26.90;42.80;;;;;;5049005;28;20041;-74
2023/05/22 11:26:43;;;;;;;7.13;4.25;;;26.90;43.50;;;;;;5049342;28;20033;-75
2023/05/22 11:29:10;;;;;;;6.95;4.93;;;26.70;45.00;;;;;;5049530;28;20057;-76
2023/05/22 11:31:39;;;;;;;9.95;6.32;;;26.60;44.30;;;;;;5048615;28;20049;-75
2023/05/22 11:34:08;;;;;;;9.90;5.60;;;26.70;45.40;;;;;;5049922;28;20049;-75
2023/05/22 11:36:36;;;;;;;6.30;4.68;;;26.90;45.10;;;;;;5050234;28;20045;-76
2023/05/22 11:39:04;;;;;;;7.60;4.40;;;26.90;45.40;;;;;;5052021;28;20103;-76
2023/05/22 11:41:33;;;;;;;6.70;4.32;;;26.70;44.60;;;;;;5051485;28;20040;-75
2023/05/22 11:44:01;;;;;;;9.30;4.80;;;26.20;44.30;;;;;;5052941;28;20045;-76
2023/05/22 11:46:29;;;;;;;8.52;4.75;;;26.00;45.40;;;;;;5053982;28;20045;-76
2023/05/22 11:48:57;;;;;;;5.85;4.43;;;25.90;45.70;;;;;;5055869;28;20045;-77
2023/05/22 11:51:27;;;;;;;7.55;4.55;;;25.90;46.60;;;;;;5055679;28;20048;-77
2023/05/22 11:53:55;;;;;;;8.88;5.43;;;25.80;47.00;;;;;;5053518;28;20144;-75
2023/05/22 11:56:22;;;;;;;9.32;4.55;;;25.70;46.00;;;;;;5052646;28;20041;-77
2023/05/22 11:58:50;;;;;;;10.13;4.72;;;25.60;45.70;;;;;;5053305;28;20053;-76
2023/05/22 12:01:18;;;;;;;9.45;4.57;;;25.50;46.30;;;;;;5055675;28;20057;-78
2023/05/22 12:03:45;;;;;;;8.13;5.15;;;25.50;46.70;;;;;;5052286;28;20041;-76
2023/05/22 12:06:13;;;;;;;7.07;4.70;;;25.70;46.60;;;;;;5054251;28;20049;-74
2023/05/22 12:08:42;;;;;;;8.25;4.82;;;25.70;46.70;;;;;;5061484;28;20529;-77
2023/05/22 12:11:12;;;;;;;12.50;4.65;;;25.90;46.50;;;;;;5061746;28;20044;-75
2023/05/22 12:13:40;;;;;;;9.57;5.30;;;26.00;45.90;;;;;;5068934;28;20077;-75
2023/05/22 12:16:20;;;;;;;9.00;5.05;;;26.10;46.40;;;;;;5045097;28;20109;-75
2023/05/22 12:18:47;;;;;;;10.27;5.05;;;26.10;45.00;;;;;;5051692;28;20068;-75
2023/05/22 12:21:15;;;;;;;8.48;4.68;;;26.10;45.00;;;;;;5063879;28;20126;-75
2023/05/22 12:23:51;;;;;;;8.45;5.43;;;26.30;44.70;;;;;;5062495;28;20047;-75
2023/05/22 12:26:21;;;;;;;6.22;4.50;;;26.50;45.80;;;;;;5061165;28;20432;-75
2023/05/22 12:28:48;;;;;;;7.28;4.90;;;26.60;47.30;;;;;;5060107;28;20037;-76
2023/05/22 12:31:21;;;;;;;8.60;4.82;;;26.60;48.50;;;;;;5053708;28;20497;-75
2023/05/22 12:33:49;;;;;;;9.10;4.75;;;26.30;48.20;;;;;;5054378;28;20049;-75
2023/05/22 12:36:16;;;;;;;8.73;4.80;;;26.10;49.20;;;;;;5036040;28;20037;-76
2023/05/22 12:38:44;;;;;;;11.48;5.20;;;26.10;49.20;;;;;;5052684;28;20060;-76
2023/05/22 12:41:13;;;;;;;9.70;5.05;;;26.20;49.40;;;;;;5052334;28;20546;-75
2023/05/22 12:43:40;;;;;;;7.25;5.00;;;26.20;51.60;;;;;;5053006;28;20029;-76
2023/05/22 12:46:08;;;;;;;9.85;4.70;;;26.30;52.00;;;;;;5035659;28;20048;-76
2023/05/22 12:48:36;;;;;;;8.93;4.47;;;25.90;52.20;;;;;;5052820;28;20048;-76
2023/05/22 12:51:03;;;;;;;8.00;5.30;;;25.70;53.00;;;;;;5053909;28;20064;-76